Time;durP1;ratioP1;P1;durP2;ratioP2;P2;SDS_P1;SDS_P2;PMS_P1;PMS_P2;Temp;Humidity;BMP_temperature;BMP_pressure;BME280_temperature;BME280_humidity;BME280_pressure;Samples;Min_cycle;Max_cycle;Signal;HPM_P1;HPM_P2
2023/06/01 00:01:53;;;;;;;;;;;16.60;40.80;;;12.51;72.80;95523.50;5024464;28;20328;-48
2023/06/01 00:04:19;;;;;;;;;;;16.50;40.90;;;12.47;72.83;95523.25;5031281;28;19995;-47
2023/06/01 00:06:44;;;;;;;;;;;16.50;41.00;;;12.42;72.23;95520.63;5031207;28;19992;-47
2023/06/01 00:09:11;;;;;;;;;;;16.50;41.20;;;12.34;72.92;95529.19;5029968;28;19909;-50
2023/06/01 00:11:36;;;;;;;;;;;16.40;41.30;;;12.26;72.27;95527.13;5032274;28;19921;-47
2023/06/01 00:14:02;;;;;;;;;;;16.40;41.40;;;12.22;71.60;95534.06;5033588;28;19915;-50
2023/06/01 00:27:31;;;;;;;;;;;16.20;41.90;;;12.08;76.58;95531.22;5026344;28;19943;-47
2023/06/01 00:29:57;;;;;;;;;;;16.20;42.10;;;11.99;77.78;95530.19;5034501;28;19916;-48
2023/06/01 00:32:23;;;;;;;;;;;16.10;42.20;;;11.93;78.17;95529.41;5033628;28;19952;-47
2023/06/01 00:34:48;;;;;;;;;;;16.00;42.30;;;11.85;77.79;95529.22;5033068;28;20336;-47
2023/06/01 00:37:14;;;;;;;;;;;16.00;42.40;;;11.81;79.46;95531.56;5033299;28;20008;-50
2023/06/01 00:39:40;;;;;;;;;;;16.00;42.60;;;11.81;78.32;95531.56;5034405;28;19991;-47
2023/06/01 00:42:06;;;;;;;;;;;15.90;42.70;;;11.76;78.41;95527.06;5034653;28;19912;-47
2023/06/01 00:44:32;;;;;;;;;;;15.90;42.80;;;11.72;78.61;95526.03;5033243;28;19908;-49
2023/06/01 00:46:59;;;;;;;;;;;15.80;42.90;;;11.67;78.72;95531.38;5034553;28;19908;-49
2023/06/01 00:49:26;;;;;;;;;;;15.80;43.10;;;11.61;78.72;95521.78;5048368;28;20274;-48
2023/06/01 00:51:53;;;;;;;;;;;15.80;43.20;;;11.58;79.18;95530.34;5034304;28;20338;-50
2023/06/01 00:54:20;;;;;;;;;;;15.70;43.30;;;11.53;80.25;95522.34;5034051;28;19909;-47
2023/06/01 00:56:46;;;;;;;;;;;15.70;43.50;;;11.53;79.89;95525.00;5033101;28;19963;-47
2023/06/01 00:59:13;;;;;;;;;;;15.70;43.50;;;11.52;79.96;95526.06;5049585;28;19913;-48
2023/06/01 01:01:42;;;;;;;;;;;15.60;43.60;;;11.49;80.97;95521.28;5033284;28;19916;-46
2023/06/01 01:04:09;;;;;;;;;;;15.60;43.80;;;11.45;81.42;95522.91;5033976;28;19915;-48
2023/06/01 01:07:24;;;;;;;;;;;15.60;43.90;;;11.35;83.48;95529.06;5034275;28;19908;-50
2023/06/01 01:10:09;;;;;;;;;;;15.60;44.10;;;11.35;82.96;95527.19;4992243;28;19944;-48
2023/06/01 01:12:53;;;;;;;;;;;15.50;44.20;;;11.33;82.66;95523.19;5022012;28;20321;-49
2023/06/01 01:16:27;;;;;;;;;;;15.50;44.30;;;11.29;82.57;95525.59;5032543;28;19908;-47
2023/06/01 01:19:31;;;;;;;;;;;15.40;44.40;;;11.25;83.17;95521.06;4972612;28;19953;-46
2023/06/01 01:22:43;;;;;;;;;;;15.40;44.60;;;11.18;84.21;95528.56;5031059;28;20007;-48
2023/06/01 01:25:25;;;;;;;;;;;15.30;44.70;;;11.21;83.75;95528.00;5032426;28;20384;-52
2023/06/01 01:28:19;;;;;;;;;;;15.30;44.90;;;11.17;84.32;95529.63;5033670;28;19909;-50
2023/06/01 01:30:47;;;;;;;;;;;15.30;45.00;;;11.10;85.07;95528.03;5022566;28;19982;-53
2023/06/01 01:33:14;;;;;;;;;;;15.20;45.10;;;11.14;85.28;95527.50;5047618;28;20330;-47
2023/06/01 01:35:42;;;;;;;;;;;15.20;45.30;;;11.22;85.44;95532.28;5043370;28;20367;-50
2023/06/01 01:38:08;;;;;;;;;;;15.30;45.40;;;11.26;84.90;95534.16;5030273;28;19916;-49
2023/06/01 01:40:33;;;;;;;;;;;15.20;45.60;;;11.29;85.16;95527.47;5032324;28;20367;-49
2023/06/01 01:43:01;;;;;;;;;;;15.30;45.60;;;11.32;83.81;95526.94;5032419;28;19958;-52
2023/06/01 01:45:27;;;;;;;;;;;15.30;45.80;;;11.35;82.92;95521.84;5031581;28;20321;-48
2023/06/01 01:48:06;;;;;;;;;;;15.30;45.80;;;11.39;81.66;95518.66;5032244;28;20353;-51
2023/06/01 01:50:46;;;;;;;;;;;15.30;45.90;;;11.47;80.89;95513.56;5046092;28;19923;-53
2023/06/01 01:53:12;;;;;;;;;;;15.40;46.00;;;11.54;80.99;95522.06;5018662;28;19908;-49
2023/06/01 01:55:39;;;;;;;;;;;15.40;46.00;;;11.55;80.40;95518.31;5045749;28;19921;-48
2023/06/01 01:58:05;;;;;;;;;;;15.40;46.00;;;11.53;81.58;95517.00;5047576;28;20000;-47
2023/06/01 02:00:32;;;;;;;;;;;15.40;46.00;;;11.51;81.40;95519.16;5047329;28;19962;-46
2023/06/01 02:03:00;;;;;;;;;;;15.50;46.10;;;11.54;81.54;95516.75;5031248;28;19908;-47
2023/06/01 02:05:25;;;;;;;;;;;15.50;46.10;;;11.60;80.32;95514.88;5047336;28;19913;-47
2023/06/01 02:07:51;;;;;;;;;;;15.50;46.10;;;11.64;79.72;95515.13;5030775;28;20443;-47
2023/06/01 02:10:17;;;;;;;;;;;15.50;46.10;;;11.62;79.20;95512.69;5031414;28;19917;-49
2023/06/01 02:12:43;;;;;;;;;;;15.50;46.20;;;11.61;79.54;95516.44;5031957;28;20608;-47
2023/06/01 02:15:09;;;;;;;;;;;15.60;46.20;;;11.66;80.25;95513.78;5031036;28;19916;-48
2023/06/01 02:17:36;;;;;;;;;;;15.60;46.20;;;11.69;81.13;95513.22;5031678;28;19956;-48
2023/06/01 02:20:03;;;;;;;;;;;15.60;46.30;;;11.72;80.86;95517.19;5028312;28;19912;-48
2023/06/01 02:22:28;;;;;;;;;;;15.60;46.30;;;11.67;80.57;95511.91;5031887;28;20004;-50
2023/06/01 02:24:55;;;;;;;;;;;15.60;46.30;;;11.54;81.62;95511.41;5032009;28;20357;-49
2023/06/01 02:27:20;;;;;;;;;;;15.60;46.30;;;11.50;82.38;95510.38;5030370;28;19920;-47
2023/06/01 02:29:46;;;;;;;;;;;15.60;46.40;;;11.47;82.08;95512.75;5031477;28;20287;-47
2023/06/01 02:32:12;;;;;;;;;;;15.60;46.40;;;11.40;82.86;95510.38;5030690;28;19935;-53
2023/06/01 02:34:37;;;;;;;;;;;15.50;46.50;;;11.38;82.90;95506.41;5031245;28;19963;-49
2023/06/01 02:37:04;;;;;;;;;;;15.50;47.20;;;11.37;83.40;95510.91;5030803;28;19913;-54
2023/06/01 02:39:30;;;;;;;;;;;15.50;46.60;;;11.31;83.83;95515.47;5031282;28;20294;-48
2023/06/01 02:41:56;;;;;;;;;;;15.40;46.70;;;11.27;83.51;95508.28;5031575;28;19913;-47
2023/06/01 02:44:21;;;;;;;;;;;15.40;46.80;;;11.27;84.45;95503.72;5030202;28;19909;-49
2023/06/01 02:46:47;;;;;;;;;;;15.40;46.90;;;11.32;83.15;95510.94;5031048;28;20335;-49
2023/06/01 02:49:12;;;;;;;;;;;15.40;47.00;;;11.33;82.98;95510.66;5030621;28;20214;-48
2023/06/01 02:51:38;;;;;;;;;;;15.30;47.00;;;11.30;84.65;95510.41;5031100;28;20264;-48
2023/06/01 02:54:04;;;;;;;;;;;15.30;47.10;;;11.27;83.22;95511.72;5031222;28;19951;-49
2023/06/01 02:56:30;;;;;;;;;;;15.30;47.30;;;11.31;83.71;95510.16;5030018;28;19913;-48
2023/06/01 02:58:55;;;;;;;;;;;15.30;47.30;;;11.32;84.49;95505.59;5031346;28;19916;-50
2023/06/01 03:01:21;;;;;;;;;;;15.30;47.30;;;11.35;83.00;95515.72;5030502;28;19908;-54
2023/06/01 03:03:48;;;;;;;;;;;15.30;47.40;;;11.30;82.51;95511.19;5031141;28;19978;-48
2023/06/01 03:06:17;;;;;;;;;;;15.30;47.50;;;11.28;82.14;95515.19;5030897;28;19917;-51
2023/06/01 03:08:43;;;;;;;;;;;15.30;47.50;;;11.23;82.29;95517.88;5018506;28;19909;-49
2023/06/01 03:11:08;;;;;;;;;;;15.30;47.50;;;11.16;82.54;95517.38;5042249;23;19920;-44
2023/06/01 03:13:34;;;;;;;;;;;15.30;47.60;;;11.06;84.09;95520.84;5032927;28;19923;-46
2023/06/01 03:16:00;;;;;;;;;;;15.20;47.60;;;11.02;85.37;95525.91;5024404;28;19913;-46
2023/06/01 03:18:26;;;;;;;;;;;15.20;47.80;;;10.99;85.25;95525.66;5031977;28;20366;-45
2023/06/01 03:20:52;;;;;;;;;;;15.10;47.60;;;10.92;85.81;95525.91;5030462;28;19923;-45
2023/06/01 03:23:18;;;;;;;;;;;15.10;47.80;;;10.88;86.46;95535.53;5019872;28;19909;-47
2023/06/01 03:25:43;;;;;;;;;;;15.10;47.90;;;10.83;85.47;95524.84;5015403;28;20417;-45
2023/06/01 03:28:09;;;;;;;;;;;15.00;47.90;;;10.79;85.59;95534.47;5031506;28;19912;-44
2023/06/01 03:30:35;;;;;;;;;;;14.90;48.00;;;10.72;87.81;95526.72;5027330;28;19948;-45
2023/06/01 03:33:01;;;;;;;;;;;14.90;48.00;;;10.66;89.00;95535.78;5015682;28;19920;-45
2023/06/01 03:35:27;;;;;;;;;;;14.90;48.10;;;10.67;88.31;95523.25;5029475;28;20329;-45
2023/06/01 03:37:52;;;;;;;;;;;14.80;48.20;;;10.64;88.30;95527.25;5025738;28;19944;-47
2023/06/01 03:40:18;;;;;;;;;;;14.80;48.40;;;10.63;87.97;95528.31;5029357;28;19909;-45
2023/06/01 03:42:49;;;;;;;;;;;14.80;48.40;;;10.57;88.03;95532.06;5032081;28;19909;-45
2023/06/01 03:45:16;;;;;;;;;;;14.80;48.50;;;10.54;87.85;95533.38;5041805;28;19909;-45
2023/06/01 03:47:42;;;;;;;;;;;14.70;48.60;;;10.50;87.96;95547.47;5015723;28;20019;-48
2023/06/01 03:50:09;;;;;;;;;;;14.70;48.60;;;10.44;90.20;95538.69;5027642;28;20379;-45
2023/06/01 03:52:36;;;;;;;;;;;14.70;48.70;;;10.44;89.24;95546.69;5027450;28;19913;-47
2023/06/01 03:55:08;;;;;;;;;;;14.70;48.80;;;10.40;89.69;95542.94;5050632;28;19991;-44
2023/06/01 03:57:35;;;;;;;;;;;14.70;48.80;;;10.38;89.19;95545.88;5022473;28;20398;-45
2023/06/01 04:00:17;;;;;;;;;;;14.60;48.80;;;10.31;91.08;95540.00;5035115;28;19912;-47
2023/06/01 04:02:57;;;;;;;;;;;14.70;49.00;;;10.29;92.67;95546.66;5034298;28;20007;-45
2023/06/01 04:05:25;;;;;;;;;;;14.60;49.00;;;10.29;93.95;95544.78;5035282;28;19908;-45
2023/06/01 04:07:53;;;;;;;;;;;14.60;49.10;;;10.28;93.23;95545.84;5030909;28;20287;-45
2023/06/01 04:10:20;;;;;;;;;;;14.60;49.20;;;10.26;93.39;95547.97;5025504;28;19920;-47
2023/06/01 04:12:51;;;;;;;;;;;14.60;49.30;;;10.33;92.83;95561.03;5034978;28;20347;-45
2023/06/01 04:15:19;;;;;;;;;;;14.60;49.40;;;10.38;92.42;95551.19;5033918;28;20007;-45
2023/06/01 04:17:45;;;;;;;;;;;14.60;49.50;;;10.40;92.12;95553.59;5035002;28;19913;-44
2023/06/01 04:20:17;;;;;;;;;;;14.70;49.60;;;10.40;92.56;95557.06;5025006;28;19920;-45
2023/06/01 04:22:45;;;;;;;;;;;14.70;49.60;;;10.44;93.56;95565.31;5034749;28;19908;-51
2023/06/01 04:25:18;;;;;;;;;;;14.70;49.60;;;10.59;94.05;95567.19;5050172;28;19949;-50
2023/06/01 04:27:46;;;;;;;;;;;14.70;49.70;;;10.77;93.88;95566.69;5029847;28;19909;-45
2023/06/01 04:30:13;;;;;;;;;;;14.80;49.80;;;10.96;92.86;95563.50;5028828;28;20341;-49
2023/06/01 04:32:40;;;;;;;;;;;14.90;49.90;;;11.14;91.48;95560.28;5030118;28;19908;-48
2023/06/01 04:35:07;;;;;;;;;;;15.00;49.90;;;11.35;90.86;95559.19;5034560;28;19963;-46
2023/06/01 04:37:35;;;;;;;;;;;15.20;50.00;;;11.60;89.78;95565.53;5049076;28;19917;-45
2023/06/01 04:40:09;;;;;;;;;;;15.40;50.00;;;11.82;87.97;95563.34;5021117;28;19913;-46
2023/06/01 04:42:38;;;;;;;;;;;15.50;49.90;;;12.09;85.86;95566.72;5034303;28;19908;-47
2023/06/01 04:45:07;;;;;;;;;;;15.80;50.00;;;12.32;82.88;95568.75;5045442;28;19996;-48
2023/06/01 04:47:37;;;;;;;;;;;16.00;49.90;;;12.61;81.13;95560.84;5024931;28;19936;-44
2023/06/01 04:50:09;;;;;;;;;;;16.30;49.80;;;12.89;78.19;95572.66;5028693;28;19917;-44
2023/06/01 04:52:39;;;;;;;;;;;16.50;49.60;;;13.18;75.95;95564.66;5026301;28;19916;-48
2023/06/01 04:55:07;;;;;;;;;;;16.80;49.50;;;13.46;74.75;95564.97;5034457;28;20262;-49
2023/06/01 04:57:38;;;;;;;;;;;17.00;49.20;;;13.73;72.96;95567.13;5033221;28;19909;-48
2023/06/01 05:00:13;;;;;;;;;;;17.30;49.00;;;14.01;70.86;95567.34;5014355;28;19916;-46
2023/06/01 05:02:44;;;;;;;;;;;17.60;48.80;;;14.25;70.36;95567.28;5030150;28;19917;-46
2023/06/01 05:05:11;;;;;;;;;;;17.90;48.50;;;14.45;69.74;95575.06;5023434;28;19927;-45
2023/06/01 05:07:38;;;;;;;;;;;18.20;48.20;;;14.63;67.30;95565.47;5029425;28;20318;-45
2023/06/01 05:10:06;;;;;;;;;;;18.40;48.00;;;14.84;67.61;95570.53;5023113;28;19913;-47
2023/06/01 05:12:33;;;;;;;;;;;18.70;47.70;;;15.02;66.77;95577.75;5029097;28;19913;-45
2023/06/01 05:15:05;;;;;;;;;;;18.90;47.50;;;15.21;64.98;95575.84;5028145;28;19915;-45
2023/06/01 05:17:31;;;;;;;;;;;19.20;47.20;;;15.47;64.38;95576.19;5034980;28;19913;-47
2023/06/01 05:19:57;;;;;;;;;;;19.40;47.00;;;15.68;63.93;95573.97;5030123;28;20438;-44
2023/06/01 05:22:23;;;;;;;;;;;19.70;46.70;;;15.92;64.07;95573.78;5032826;28;19981;-49
2023/06/01 05:24:49;;;;;;;;;;;19.90;46.50;;;16.07;61.21;95575.38;5033817;28;20394;-44
2023/06/01 05:27:16;;;;;;;;;;;20.10;46.20;;;16.25;60.47;95576.34;5023348;28;19924;-48
2023/06/01 05:29:42;;;;;;;;;;;20.40;45.90;;;16.37;60.70;95584.72;5021983;28;19978;-47
2023/06/01 05:32:09;;;;;;;;;;;20.60;45.70;;;16.46;61.97;95587.50;5024801;28;19908;-45
2023/06/01 05:34:35;;;;;;;;;;;20.80;45.40;;;16.64;62.55;95591.16;5028601;28;19909;-49
2023/06/01 05:37:02;;;;;;;;;;;21.00;45.20;;;16.76;62.08;95591.41;5033439;28;20343;-47
2023/06/01 05:39:28;;;;;;;;;;;21.30;45.00;;;16.98;60.61;95581.78;5020292;28;19908;-49
2023/06/01 05:41:55;;;;;;;;;;;21.50;44.80;;;17.16;59.94;95578.13;5026852;28;19909;-47
2023/06/01 05:44:21;;;;;;;;;;;21.70;44.60;;;17.31;59.09;95585.81;5015194;28;19913;-45
2023/06/01 05:46:49;;;;;;;;;;;21.90;44.50;;;17.58;59.27;95590.28;5013618;28;19909;-46
2023/06/01 05:49:15;;;;;;;;;;;22.20;44.30;;;17.76;57.79;95583.06;5018822;28;19908;-50
2023/06/01 05:51:42;;;;;;;;;;;22.40;44.10;;;18.02;56.15;95585.13;5019449;28;19966;-47
2023/06/01 05:54:10;;;;;;;;;;;22.70;43.80;;;18.24;56.70;95587.72;5033329;28;19912;-45
2023/06/01 05:56:40;;;;;;;;;;;23.00;43.60;;;18.52;56.07;95592.88;5017907;28;19959;-47
2023/06/01 05:59:06;;;;;;;;;;;23.30;43.30;;;18.80;53.87;95589.91;5025214;28;19912;-45
2023/06/01 06:01:32;;;;;;;;;;;23.60;43.00;;;19.03;52.82;95593.25;5016427;28;19920;-48
2023/06/01 06:03:59;;;;;;;;;;;23.80;42.60;;;19.25;52.40;95589.59;5025392;28;19913;-45
2023/06/01 06:06:26;;;;;;;;;;;24.10;42.30;;;19.35;50.61;95594.66;5048254;28;20295;-48
2023/06/01 06:08:52;;;;;;;;;;;24.30;41.90;;;19.53;49.86;95595.44;5030945;28;19974;-46
2023/06/01 06:11:18;;;;;;;;;;;24.50;41.60;;;19.75;49.35;95600.66;5032495;28;20015;-45
2023/06/01 06:13:44;;;;;;;;;;;24.70;41.30;;;19.81;48.91;95607.47;5020612;28;19908;-45
2023/06/01 06:16:10;;;;;;;;;;;24.90;41.00;;;19.98;49.35;95601.19;5020988;28;19916;-47
2023/06/01 06:18:36;;;;;;;;;;;25.10;40.70;;;20.11;48.42;95602.88;5017743;28;19913;-45
2023/06/01 06:21:02;;;;;;;;;;;25.20;40.40;;;20.31;48.12;95606.78;5023522;28;20288;-49
2023/06/01 06:23:30;;;;;;;;;;;25.40;40.20;;;20.53;46.94;95608.44;5029911;28;19909;-50
2023/06/01 06:25:55;;;;;;;;;;;25.60;40.00;;;20.63;46.91;95601.88;5016366;28;20268;-46
2023/06/01 06:28:21;;;;;;;;;;;25.80;39.80;;;20.77;47.19;95605.09;5014147;28;19920;-45
2023/06/01 06:30:47;;;;;;;;;;;25.90;39.40;;;20.93;45.57;95602.63;5032260;28;19913;-46
2023/06/01 06:33:13;;;;;;;;;;;26.10;39.20;;;20.91;45.29;95604.84;5031791;28;19931;-46
2023/06/01 06:35:41;;;;;;;;;;;26.30;39.00;;;20.95;46.10;95603.06;5032671;28;19909;-44
2023/06/01 06:38:07;;;;;;;;;;;26.50;38.80;;;21.17;45.84;95610.06;5031496;28;19915;-42
2023/06/01 06:40:32;;;;;;;;;;;26.70;38.70;;;21.36;44.79;95606.91;5032327;28;20294;-45
2023/06/01 06:42:58;;;;;;;;;;;26.90;38.50;;;21.34;46.34;95616.44;5032261;28;19915;-45
2023/06/01 06:45:24;;;;;;;;;;;27.10;38.30;;;21.55;45.06;95617.25;5031282;28;20000;-44
2023/06/01 06:47:50;;;;;;;;;;;27.40;38.10;;;21.78;44.59;95611.44;5019132;28;19962;-47
2023/06/01 06:50:15;;;;;;;;;;;27.60;37.90;;;22.02;43.85;95607.97;5031023;28;20386;-45
2023/06/01 06:52:41;;;;;;;;;;;27.70;37.60;;;22.23;43.47;95607.94;5032121;28;19969;-44
2023/06/01 06:55:08;;;;;;;;;;;28.00;37.50;;;22.43;43.29;95609.72;5032132;28;19944;-44
2023/06/01 06:57:35;;;;;;;;;;;28.20;37.20;;;22.59;42.08;95604.41;5017986;28;19909;-45
2023/06/01 07:00:03;;;;;;;;;;;28.30;36.90;;;22.84;42.88;95599.72;5023432;28;19938;-43
2023/06/01 07:02:29;;;;;;;;;;;28.50;36.70;;;23.05;42.01;95610.47;5021709;28;19913;-44
2023/06/01 07:04:55;;;;;;;;;;;28.70;36.50;;;23.04;42.17;95604.25;5031978;28;20018;-44
2023/06/01 07:07:20;;;;;;;;;;;28.90;36.90;;;23.19;41.56;95607.38;5031119;28;19913;-46
2023/06/01 07:09:46;;;;;;;;;;;29.10;36.00;;;23.49;41.92;95613.25;5032090;28;19909;-46
2023/06/01 07:12:12;;;;;;;;;;;29.30;35.80;;;23.60;41.11;95608.91;5029694;28;20067;-47
2023/06/01 07:14:38;;;;;;;;;;;29.40;35.60;;;23.78;40.37;95609.41;5013878;28;19958;-45
2023/06/01 07:17:04;;;;;;;;;;;29.60;35.40;;;23.82;40.68;95606.78;5012293;28;20356;-45
2023/06/01 07:19:32;;;;;;;;;;;29.70;35.00;;;23.98;39.58;95613.06;5019932;28;19909;-46
2023/06/01 07:22:02;;;;;;;;;;;29.90;34.90;;;24.01;39.79;95610.41;5035749;28;19909;-44
2023/06/01 07:24:28;;;;;;;;;;;30.00;34.60;;;24.23;39.54;95614.47;5036084;28;19951;-44
2023/06/01 07:26:57;;;;;;;;;;;30.20;34.50;;;24.49;38.91;95606.91;5034750;28;19944;-44
2023/06/01 07:29:24;;;;;;;;;;;30.30;35.00;;;24.75;38.92;95615.31;5035765;28;19913;-46
2023/06/01 07:31:52;;;;;;;;;;;30.50;34.10;;;24.86;38.24;95607.38;5034898;28;19955;-44
2023/06/01 07:34:18;;;;;;;;;;;30.70;34.00;;;25.23;38.26;95604.28;5025186;28;19932;-49
2023/06/01 07:36:47;;;;;;;;;;;30.80;34.40;;;25.51;37.66;95610.31;5033260;28;19968;-44
2023/06/01 07:39:13;;;;;;;;;;;31.10;33.80;;;25.84;35.92;95609.00;5023881;28;19909;-44
2023/06/01 07:41:39;;;;;;;;;;;31.30;33.60;;;25.90;35.91;95606.78;5033029;28;20426;-44
2023/06/01 07:44:07;;;;;;;;;;;31.60;33.40;;;26.11;35.80;95598.97;5028701;28;20047;-45
2023/06/01 07:46:33;;;;;;;;;;;31.80;33.10;;;26.37;35.31;95600.16;5048693;28;19909;-45
2023/06/01 07:48:59;;;;;;;;;;;32.00;32.80;;;26.22;35.08;95593.69;5035468;28;19916;-49
2023/06/01 07:51:24;;;;;;;;;;;32.30;32.70;;;26.34;34.82;95596.22;5022895;28;19990;-48
2023/06/01 07:53:50;;;;;;;;;;;32.40;32.30;;;26.21;35.12;95600.28;5035590;28;19912;-45
2023/06/01 07:56:16;;;;;;;;;;;32.60;32.10;;;26.46;34.54;95601.47;5029952;28;20333;-45
2023/06/01 07:58:44;;;;;;;;;;;32.70;31.90;;;26.60;34.72;95597.41;5026514;28;19909;-44
2023/06/01 08:01:10;;;;;;;;;;;32.80;31.70;;;26.74;34.29;95600.38;5035153;28;20278;-48
2023/06/01 08:03:36;;;;;;;;;;;32.90;31.60;;;27.07;34.19;95596.13;5034532;28;19908;-46
2023/06/01 08:06:04;;;;;;;;;;;33.00;31.40;;;26.79;33.76;95594.56;5035192;28;19916;-46
2023/06/01 08:08:31;;;;;;;;;;;33.20;31.20;;;27.07;34.56;95593.41;5023682;28;19909;-44
2023/06/01 08:10:57;;;;;;;;;;;33.30;31.00;;;27.44;35.27;95597.00;5032828;28;20008;-46
2023/06/01 08:13:25;;;;;;;;;;;33.40;30.90;;;27.55;33.31;95596.38;5033707;28;19992;-46
2023/06/01 08:15:52;;;;;;;;;;;33.60;31.30;;;27.82;33.35;95597.84;5016616;28;19959;-45
2023/06/01 08:18:22;;;;;;;;;;;33.70;30.60;;;27.87;32.70;95600.25;5027079;28;19915;-50
2023/06/01 08:20:48;;;;;;;;;;;33.90;30.50;;;27.97;32.57;95598.78;5023105;28;19999;-47
2023/06/01 08:23:17;;;;;;;;;;;34.10;30.30;;;28.02;32.17;95605.88;5027209;28;19919;-46
2023/06/01 08:25:45;;;;;;;;;;;34.30;30.20;;;27.79;33.33;95603.28;5033692;28;19916;-44
2023/06/01 08:28:11;;;;;;;;;;;34.50;30.00;;;27.74;33.08;95598.91;5021714;28;20006;-47
2023/06/01 08:30:36;;;;;;;;;;;34.60;29.80;;;28.07;32.46;95605.53;5034549;28;19956;-44
2023/06/01 08:33:02;;;;;;;;;;;34.60;29.70;;;28.43;32.58;95598.44;5018158;28;20372;-44
2023/06/01 08:35:30;;;;;;;;;;;34.80;29.60;;;28.68;31.97;95597.84;5034832;28;20387;-46
2023/06/01 08:37:56;;;;;;;;;;;35.00;29.60;;;28.91;31.79;95605.81;5028021;28;19909;-45
2023/06/01 08:40:22;;;;;;;;;;;35.10;29.40;;;29.08;31.50;95604.34;5034735;28;19908;-44
2023/06/01 08:43:01;;;;;;;;;;;35.20;29.20;;;29.12;30.89;95618.88;5050043;28;20443;-50
2023/06/01 08:45:29;;;;;;;;;;;35.30;29.10;;;29.22;31.05;95607.19;5039368;28;19970;-45
2023/06/01 08:47:57;;;;;;;;;;;35.40;29.00;;;29.34;31.03;95606.06;5034651;28;19909;-47
2023/06/01 08:50:26;;;;;;;;;;;35.50;28.90;;;29.25;31.00;95607.19;5048374;28;19913;-45
2023/06/01 08:52:57;;;;;;;;;;;35.60;28.70;;;29.34;31.03;95608.81;5036087;28;19919;-44
2023/06/01 08:55:23;;;;;;;;;;;35.60;28.50;;;29.47;30.17;95608.06;5048855;28;20015;-47
2023/06/01 08:57:49;;;;;;;;;;;35.60;28.50;;;29.35;31.27;95602.94;5034204;28;19999;-47
2023/06/01 09:00:17;;;;;;;;;;;35.70;28.90;;;29.22;31.06;95602.47;5034186;28;19908;-46
2023/06/01 09:02:43;;;;;;;;;;;35.80;28.30;;;29.56;31.40;95591.25;5021089;28;20283;-45
2023/06/01 09:05:11;;;;;;;;;;;35.80;28.20;;;29.65;31.00;95594.44;5024947;28;19916;-46
2023/06/01 09:07:38;;;;;;;;;;;35.80;28.20;;;29.57;30.65;95583.81;5033341;28;19919;-46
2023/06/01 09:10:04;;;;;;;;;;;35.90;28.10;;;29.27;31.76;95593.88;5038521;28;19916;-49
2023/06/01 09:12:32;;;;;;;;;;;35.90;28.00;;;29.34;30.84;95593.13;5034279;23;20391;-58
2023/06/01 09:15:17;;;;;;;;;;;35.90;28.00;;;29.79;31.87;95588.19;5012046;28;19913;-58
2023/06/01 09:17:48;;;;;;;;;;;36.00;28.00;;;29.51;31.66;95597.09;5014155;28;19918;-59
2023/06/01 09:20:26;;;;;;;;;;;36.10;27.90;;;29.01;31.70;95591.41;5027569;28;19916;-58
2023/06/01 09:22:54;;;;;;;;;;;36.20;27.90;;;29.42;31.66;95585.69;4994654;28;19964;-59
2023/06/01 09:25:31;;;;;;;;;;;36.30;27.90;;;29.52;31.38;95585.75;4993204;28;19955;-59
2023/06/01 09:28:00;;;;;;;;;;;36.30;27.60;;;29.47;31.52;95580.63;4994264;28;19963;-58
2023/06/01 09:30:40;;;;;;;;;;;36.30;27.50;;;29.44;31.99;95583.38;4994301;28;20296;-56
2023/06/01 09:33:16;;;;;;;;;;;36.30;27.50;;;29.61;31.62;95577.16;4992659;28;19952;-56
2023/06/01 09:35:45;;;;;;;;;;;36.30;27.50;;;29.31;31.50;95585.69;4994356;28;19909;-59
2023/06/01 09:38:19;;;;;;;;;;;36.30;27.40;;;29.62;31.47;95572.50;4993046;28;19936;-58
2023/06/01 09:41:00;;;;;;;;;;;36.30;27.40;;;29.70;30.84;95585.81;4994097;28;19992;-58
2023/06/01 09:43:27;;;;;;;;;;;36.50;27.50;;;29.55;31.26;95573.19;5008226;28;20403;-56
2023/06/01 09:46:09;;;;;;;;;;;36.50;27.30;;;29.80;31.38;95576.03;4994269;28;19958;-52
2023/06/01 09:48:35;;;;;;;;;;;36.60;27.30;;;30.11;31.53;95580.00;4993369;28;19916;-58
2023/06/01 09:51:01;;;;;;;;;;;36.60;27.20;;;30.53;30.13;95578.47;4992518;28;20376;-51
2023/06/01 09:53:26;;;;;;;;;;;36.60;27.10;;;30.31;31.27;95577.72;4993807;28;19960;-52
2023/06/01 09:56:01;;;;;;;;;;;36.70;27.00;;;30.25;30.98;95575.75;4992653;28;19909;-53
2023/06/01 09:58:27;;;;;;;;;;;36.70;26.90;;;30.34;30.88;95567.91;4992793;28;19913;-54
2023/06/01 10:00:54;;;;;;;;;;;36.70;26.90;;;30.03;30.79;95572.94;4993682;28;20281;-53
2023/06/01 10:03:22;;;;;;;;;;;36.70;26.80;;;30.52;30.19;95570.63;4992444;28;19939;-58
2023/06/01 10:05:49;;;;;;;;;;;36.70;26.90;;;30.74;29.98;95563.13;5008654;28;19916;-57
2023/06/01 10:08:18;;;;;;;;;;;36.80;26.90;;;30.75;29.94;95562.75;4999619;28;19956;-59
2023/06/01 10:10:48;;;;;;;;;;;37.10;27.00;;;30.75;31.00;95557.25;4997079;28;19961;-58
2023/06/01 10:13:14;;;;;;;;;;;37.20;26.80;;;30.59;30.57;95557.66;5008477;28;19975;-58
2023/06/01 10:15:41;;;;;;;;;;;37.30;26.70;;;30.57;30.17;95553.75;4992649;28;19963;-58
2023/06/01 10:18:07;;;;;;;;;;;37.40;26.60;;;30.68;30.44;95551.78;4993451;28;20012;-59
2023/06/01 10:20:36;;;;;;;;;;;37.50;26.60;;;29.87;31.17;95556.06;4992073;28;19910;-54
2023/06/01 10:23:03;;;;;;;;;;;37.60;26.60;;;29.63;30.96;95554.84;4993539;28;20338;-58
2023/06/01 10:25:43;;;;;;;;;;;37.50;26.40;;;28.46;32.81;95545.63;4992190;28;20283;-58
2023/06/01 10:28:12;;;;;;;;;;;37.40;26.30;;;29.17;33.17;95550.72;4992103;28;20376;-59
2023/06/01 10:30:39;;;;;;;;;;;37.20;26.40;;;29.54;32.67;95546.94;4993090;28;19952;-53
2023/06/01 10:33:06;;;;;;;;;;;37.20;26.40;;;29.27;31.53;95550.00;4992085;28;19909;-57
2023/06/01 10:35:41;;;;;;;;;;;37.30;26.40;;;28.28;33.56;95547.44;4993333;28;20269;-55
2023/06/01 10:38:07;;;;;;;;;;;37.10;26.20;;;28.76;32.89;95550.09;4991994;28;19920;-56
2023/06/01 10:40:36;;;;;;;;;;;37.00;26.30;;;29.26;32.12;95542.16;4993047;28;19910;-57
2023/06/01 10:43:03;;;;;;;;;;;37.00;26.30;;;29.61;31.98;95533.25;4992975;28;19916;-53
2023/06/01 10:45:41;;;;;;;;;;;37.00;26.30;;;30.11;31.48;95530.56;5006992;28;19909;-57
2023/06/01 10:48:11;;;;;;;;;;;37.20;26.40;;;30.07;31.82;95529.78;4993142;28;19948;-57
2023/06/01 10:50:39;;;;;;;;;;;37.30;26.40;;;30.41;31.41;95540.41;4981127;28;19980;-55
2023/06/01 10:53:29;;;;;;;;;;;37.40;26.40;;;30.34;31.46;95529.44;4991689;28;19944;-55
2023/06/01 10:56:16;;;;;;;;;;;37.60;26.40;;;30.53;31.33;95539.22;4991460;28;19909;-58
2023/06/01 10:58:42;;;;;;;;;;;37.70;26.20;;;30.67;30.56;95537.22;4992926;28;19909;-58
2023/06/01 11:01:17;;;;;;;;;;;37.90;26.20;;;30.71;30.77;95530.94;4992679;28;20287;-59
2023/06/01 11:03:50;;;;;;;;;;;37.90;26.10;;;30.80;29.91;95517.59;5006332;28;19952;-57
2023/06/01 11:06:39;;;;;;;;;;;38.00;26.00;;;30.66;30.27;95521.13;4980028;28;20368;-55
2023/06/01 11:09:11;;;;;;;;;;;38.10;25.90;;;30.51;30.18;95519.59;4991727;28;19909;-57
2023/06/01 11:11:51;;;;;;;;;;;38.00;25.80;;;30.81;30.31;95519.94;4992585;28;19921;-55
2023/06/01 11:14:29;;;;;;;;;;;38.10;25.80;;;30.47;30.67;95519.59;4991367;28;19909;-57
2023/06/01 11:17:16;;;;;;;;;;;38.10;25.80;;;30.82;30.20;95512.50;4992744;28;20004;-56
2023/06/01 11:19:43;;;;;;;;;;;38.20;25.80;;;30.51;32.74;95508.59;4991811;28;20260;-58
2023/06/01 11:22:12;;;;;;;;;;;38.20;25.80;;;30.24;30.87;95505.50;4991403;28;19910;-56
2023/06/01 11:24:38;;;;;;;;;;;38.30;25.80;;;30.49;31.82;95508.19;4992533;28;19909;-56
2023/06/01 11:27:10;;;;;;;;;;;38.30;25.70;;;30.45;30.77;95507.44;4991721;28;19910;-59
2023/06/01 11:29:38;;;;;;;;;;;38.40;25.60;;;30.85;30.55;95503.44;4992694;28;20372;-56
2023/06/01 11:32:06;;;;;;;;;;;38.40;25.60;;;30.54;31.35;95494.06;4991551;28;19921;-57
2023/06/01 11:34:41;;;;;;;;;;;38.50;25.40;;;30.76;30.49;95497.56;4992526;28;20006;-52
2023/06/01 11:37:19;;;;;;;;;;;38.50;25.30;;;31.23;30.35;95498.97;4992487;28;19940;-54